sensor_id;sensor_type;location;lat;lon;timestamp;P1;durP1;ratioP1;P2;durP2;ratioP2
17449;SDS011;8842;51.244;7.102;2022-10-19T00:05:23;5.93;;;5.63;;
17449;SDS011;8842;51.244;7.102;2022-10-19T00:10:27;5.70;;;5.50;;
17449;SDS011;8842;51.244;7.102;2022-10-19T00:20:45;5.80;;;5.60;;
17449;SDS011;8842;51.244;7.102;2022-10-19T00:31:05;5.80;;;5.60;;
17449;SDS011;8842;51.244;7.102;2022-10-19T00:36:14;5.80;;;5.60;;
17449;SDS011;8842;51.244;7.102;2022-10-19T00:41:32;6.17;;;5.87;;
17449;SDS011;8842;51.244;7.102;2022-10-19T00:51:48;5.77;;;5.57;;
17449;SDS011;8842;51.244;7.102;2022-10-19T01:02:06;6.20;;;5.90;;
17449;SDS011;8842;51.244;7.102;2022-10-19T01:12:30;6.00;;;5.70;;
17449;SDS011;8842;51.244;7.102;2022-10-19T01:22:59;5.70;;;5.50;;
17449;SDS011;8842;51.244;7.102;2022-10-19T01:28:22;6.17;;;5.87;;
17449;SDS011;8842;51.244;7.102;2022-10-19T01:38:50;5.77;;;5.57;;
17449;SDS011;8842;51.244;7.102;2022-10-19T01:49:12;5.70;;;5.50;;
17449;SDS011;8842;51.244;7.102;2022-10-19T01:54:25;5.47;;;5.27;;
17449;SDS011;8842;51.244;7.102;2022-10-19T02:04:44;5.73;;;5.50;;
17449;SDS011;8842;51.244;7.102;2022-10-19T02:09:49;5.70;;;5.50;;
17449;SDS011;8842;51.244;7.102;2022-10-19T02:14:55;6.00;;;5.70;;
17449;SDS011;8842;51.244;7.102;2022-10-19T02:25:12;5.70;;;5.50;;
17449;SDS011;8842;51.244;7.102;2022-10-19T02:35:27;5.70;;;5.50;;
17449;SDS011;8842;51.244;7.102;2022-10-19T02:40:34;5.60;;;5.40;;
17449;SDS011;8842;51.244;7.102;2022-10-19T02:45:47;5.90;;;5.60;;
17449;SDS011;8842;51.244;7.102;2022-10-19T02:51:03;5.57;;;5.37;;
17449;SDS011;8842;51.244;7.102;2022-10-19T02:56:08;5.80;;;5.60;;
17449;SDS011;8842;51.244;7.102;2022-10-19T03:01:23;5.73;;;5.53;;
17449;SDS011;8842;51.244;7.102;2022-10-19T03:06:27;6.00;;;5.70;;
17449;SDS011;8842;51.244;7.102;2022-10-19T03:11:31;6.10;;;5.80;;
17449;SDS011;8842;51.244;7.102;2022-10-19T03:21:46;6.50;;;6.20;;
17449;SDS011;8842;51.244;7.102;2022-10-19T03:32:01;6.50;;;6.20;;
17449;SDS011;8842;51.244;7.102;2022-10-19T03:37:06;6.60;;;6.30;;
17449;SDS011;8842;51.244;7.102;2022-10-19T03:42:10;6.50;;;6.20;;
17449;SDS011;8842;51.244;7.102;2022-10-19T03:47:22;6.60;;;6.30;;
17449;SDS011;8842;51.244;7.102;2022-10-19T03:52:26;6.77;;;6.47;;
17449;SDS011;8842;51.244;7.102;2022-10-19T03:57:40;6.80;;;6.50;;
17449;SDS011;8842;51.244;7.102;2022-10-19T04:07:56;7.50;;;7.20;;
17449;SDS011;8842;51.244;7.102;2022-10-19T04:13:00;7.40;;;7.10;;
17449;SDS011;8842;51.244;7.102;2022-10-19T04:23:15;7.03;;;6.73;;
17449;SDS011;8842;51.244;7.102;2022-10-19T04:33:30;6.60;;;6.30;;
17449;SDS011;8842;51.244;7.102;2022-10-19T04:38:35;7.10;;;6.80;;
17449;SDS011;8842;51.244;7.102;2022-10-19T04:43:40;7.30;;;6.90;;
17449;SDS011;8842;51.244;7.102;2022-10-19T04:54:00;7.17;;;6.87;;
17449;SDS011;8842;51.244;7.102;2022-10-19T05:04:16;6.40;;;6.10;;
17449;SDS011;8842;51.244;7.102;2022-10-19T05:09:20;6.60;;;6.30;;
17449;SDS011;8842;51.244;7.102;2022-10-19T05:19:35;7.50;;;7.20;;
17449;SDS011;8842;51.244;7.102;2022-10-19T05:29:50;7.70;;;7.30;;
17449;SDS011;8842;51.244;7.102;2022-10-19T05:40:07;7.50;;;7.20;;
17449;SDS011;8842;51.244;7.102;2022-10-19T05:50:23;7.40;;;7.10;;
17449;SDS011;8842;51.244;7.102;2022-10-19T06:00:39;7.20;;;6.90;;
17449;SDS011;8842;51.244;7.102;2022-10-19T06:10:56;7.30;;;7.00;;
17449;SDS011;8842;51.244;7.102;2022-10-19T06:21:21;7.60;;;7.20;;
17449;SDS011;8842;51.244;7.102;2022-10-19T06:31:38;7.23;;;6.93;;
17449;SDS011;8842;51.244;7.102;2022-10-19T06:41:59;7.30;;;7.00;;
17449;SDS011;8842;51.244;7.102;2022-10-19T06:52:14;6.90;;;6.60;;
17449;SDS011;8842;51.244;7.102;2022-10-19T07:02:30;6.90;;;6.60;;
17449;SDS011;8842;51.244;7.102;2022-10-19T07:07:34;6.70;;;6.40;;
17449;SDS011;8842;51.244;7.102;2022-10-19T07:12:38;7.30;;;7.00;;
17449;SDS011;8842;51.244;7.102;2022-10-19T07:22:53;6.70;;;6.40;;
17449;SDS011;8842;51.244;7.102;2022-10-19T07:33:08;7.00;;;6.70;;
17449;SDS011;8842;51.244;7.102;2022-10-19T07:38:13;7.20;;;6.90;;
17449;SDS011;8842;51.244;7.102;2022-10-19T07:48:30;7.10;;;6.80;;
17449;SDS011;8842;51.244;7.102;2022-10-19T07:58:46;7.07;;;6.77;;
17449;SDS011;8842;51.244;7.102;2022-10-19T08:03:52;6.80;;;6.50;;
17449;SDS011;8842;51.244;7.102;2022-10-19T08:14:08;6.80;;;6.50;;
17449;SDS011;8842;51.244;7.102;2022-10-19T08:24:26;7.00;;;6.70;;
17449;SDS011;8842;51.244;7.102;2022-10-19T08:34:41;7.20;;;6.90;;
17449;SDS011;8842;51.244;7.102;2022-10-19T08:39:46;7.70;;;7.30;;
17449;SDS011;8842;51.244;7.102;2022-10-19T08:50:07;6.73;;;6.43;;
17449;SDS011;8842;51.244;7.102;2022-10-19T09:00:33;6.90;;;6.60;;
17449;SDS011;8842;51.244;7.102;2022-10-19T09:05:41;8.00;;;7.60;;
17449;SDS011;8842;51.244;7.102;2022-10-19T09:15:59;7.60;;;7.20;;
17449;SDS011;8842;51.244;7.102;2022-10-19T09:26:17;8.40;;;8.00;;
17449;SDS011;8842;51.244;7.102;2022-10-19T09:36:36;8.80;;;8.40;;
17449;SDS011;8842;51.244;7.102;2022-10-19T09:41:43;8.80;;;8.40;;
17449;SDS011;8842;51.244;7.102;2022-10-19T09:52:00;8.37;;;7.97;;
17449;SDS011;8842;51.244;7.102;2022-10-19T10:02:16;8.10;;;7.70;;
17449;SDS011;8842;51.244;7.102;2022-10-19T10:07:22;8.20;;;7.80;;
17449;SDS011;8842;51.244;7.102;2022-10-19T10:12:29;7.80;;;7.40;;
17449;SDS011;8842;51.244;7.102;2022-10-19T10:17:51;8.03;;;7.63;;
17449;SDS011;8842;51.244;7.102;2022-10-19T10:28:16;8.10;;;7.70;;
17449;SDS011;8842;51.244;7.102;2022-10-19T10:38:34;8.17;;;7.77;;
17449;SDS011;8842;51.244;7.102;2022-10-19T10:43:48;8.30;;;7.90;;
17449;SDS011;8842;51.244;7.102;2022-10-19T10:54:14;8.60;;;8.20;;
17449;SDS011;8842;51.244;7.102;2022-10-19T11:04:33;8.40;;;8.00;;
17449;SDS011;8842;51.244;7.102;2022-10-19T11:09:41;9.30;;;8.80;;
17449;SDS011;8842;51.244;7.102;2022-10-19T11:19:59;9.00;;;8.60;;
17449;SDS011;8842;51.244;7.102;2022-10-19T11:30:17;8.60;;;8.20;;
17449;SDS011;8842;51.244;7.102;2022-10-19T11:40:42;9.30;;;8.80;;
17449;SDS011;8842;51.244;7.102;2022-10-19T11:51:01;8.60;;;8.20;;
17449;SDS011;8842;51.244;7.102;2022-10-19T12:01:24;8.60;;;8.10;;
17449;SDS011;8842;51.244;7.102;2022-10-19T12:06:39;8.67;;;8.17;;
17449;SDS011;8842;51.244;7.102;2022-10-19T12:17:22;7.70;;;7.30;;
17449;SDS011;8842;51.244;7.102;2022-10-19T12:27:40;9.13;;;8.63;;
17449;SDS011;8842;51.244;7.102;2022-10-19T12:38:02;8.57;;;8.17;;
17449;SDS011;8842;51.244;7.102;2022-10-19T12:48:20;8.30;;;7.90;;
17449;SDS011;8842;51.244;7.102;2022-10-19T12:58:39;8.90;;;8.50;;
17449;SDS011;8842;51.244;7.102;2022-10-19T13:03:50;7.60;;;7.20;;
17449;SDS011;8842;51.244;7.102;2022-10-19T13:14:36;7.47;;;7.17;;
17449;SDS011;8842;51.244;7.102;2022-10-19T13:36:09;9.10;;;8.70;;
17449;SDS011;8842;51.244;7.102;2022-10-19T13:41:23;8.70;;;8.30;;
17449;SDS011;8842;51.244;7.102;2022-10-19T13:51:57;8.80;;;8.40;;
17449;SDS011;8842;51.244;7.102;2022-10-19T14:02:32;8.50;;;8.10;;
17449;SDS011;8842;51.244;7.102;2022-10-19T14:07:53;8.60;;;8.20;;
17449;SDS011;8842;51.244;7.102;2022-10-19T14:13:01;8.27;;;7.87;;
17449;SDS011;8842;51.244;7.102;2022-10-19T14:23:27;8.10;;;7.70;;
17449;SDS011;8842;51.244;7.102;2022-10-19T14:33:45;8.10;;;7.70;;
17449;SDS011;8842;51.244;7.102;2022-10-19T14:38:52;8.30;;;7.90;;
17449;SDS011;8842;51.244;7.102;2022-10-19T14:49:09;8.30;;;7.90;;
17449;SDS011;8842;51.244;7.102;2022-10-19T14:59:25;6.90;;;6.50;;
17449;SDS011;8842;51.244;7.102;2022-10-19T15:04:33;8.17;;;7.77;;
17449;SDS011;8842;51.244;7.102;2022-10-19T15:14:51;6.83;;;6.53;;
17449;SDS011;8842;51.244;7.102;2022-10-19T15:30:58;8.10;;;7.70;;
17449;SDS011;8842;51.244;7.102;2022-10-19T15:41:25;7.87;;;7.47;;
17449;SDS011;8842;51.244;7.102;2022-10-19T15:51:44;9.27;;;8.40;;
17449;SDS011;8842;51.244;7.102;2022-10-19T16:02:00;8.10;;;7.70;;
17449;SDS011;8842;51.244;7.102;2022-10-19T16:12:20;8.27;;;7.87;;
17449;SDS011;8842;51.244;7.102;2022-10-19T16:22:36;8.00;;;7.60;;
17449;SDS011;8842;51.244;7.102;2022-10-19T16:32:51;8.03;;;7.63;;
17449;SDS011;8842;51.244;7.102;2022-10-19T16:37:55;8.10;;;7.70;;
17449;SDS011;8842;51.244;7.102;2022-10-19T16:48:11;7.90;;;7.50;;
17449;SDS011;8842;51.244;7.102;2022-10-19T16:58:26;8.30;;;7.90;;
17449;SDS011;8842;51.244;7.102;2022-10-19T17:03:30;7.10;;;6.80;;
17449;SDS011;8842;51.244;7.102;2022-10-19T17:13:46;7.80;;;7.40;;
17449;SDS011;8842;51.244;7.102;2022-10-19T17:24:04;6.80;;;6.50;;
17449;SDS011;8842;51.244;7.102;2022-10-19T17:29:10;6.50;;;6.20;;
17449;SDS011;8842;51.244;7.102;2022-10-19T17:34:22;6.87;;;6.47;;
17449;SDS011;8842;51.244;7.102;2022-10-19T17:44:40;7.40;;;7.00;;
17449;SDS011;8842;51.244;7.102;2022-10-19T17:54:55;7.83;;;7.33;;
17449;SDS011;8842;51.244;7.102;2022-10-19T18:05:11;7.93;;;7.47;;
17449;SDS011;8842;51.244;7.102;2022-10-19T18:10:15;7.60;;;7.20;;
17449;SDS011;8842;51.244;7.102;2022-10-19T18:15:27;8.90;;;7.83;;
17449;SDS011;8842;51.244;7.102;2022-10-19T18:25:44;7.60;;;7.20;;
17449;SDS011;8842;51.244;7.102;2022-10-19T18:36:00;9.57;;;8.87;;
17449;SDS011;8842;51.244;7.102;2022-10-19T18:41:06;7.83;;;7.43;;
17449;SDS011;8842;51.244;7.102;2022-10-19T18:51:24;7.30;;;7.00;;
17449;SDS011;8842;51.244;7.102;2022-10-19T19:01:39;7.50;;;7.10;;
17449;SDS011;8842;51.244;7.102;2022-10-19T19:11:54;7.10;;;6.80;;
17449;SDS011;8842;51.244;7.102;2022-10-19T19:22:11;7.30;;;6.90;;
17449;SDS011;8842;51.244;7.102;2022-10-19T19:32:26;7.30;;;7.00;;
17449;SDS011;8842;51.244;7.102;2022-10-19T19:37:30;8.40;;;7.70;;
17449;SDS011;8842;51.244;7.102;2022-10-19T19:47:47;7.67;;;7.27;;
17449;SDS011;8842;51.244;7.102;2022-10-19T19:58:02;8.20;;;7.80;;
17449;SDS011;8842;51.244;7.102;2022-10-19T20:03:06;8.00;;;7.60;;
17449;SDS011;8842;51.244;7.102;2022-10-19T20:13:23;7.90;;;7.50;;
17449;SDS011;8842;51.244;7.102;2022-10-19T20:23:38;8.40;;;7.90;;
17449;SDS011;8842;51.244;7.102;2022-10-19T20:33:55;7.80;;;7.40;;
17449;SDS011;8842;51.244;7.102;2022-10-19T20:39:00;8.17;;;7.70;;
17449;SDS011;8842;51.244;7.102;2022-10-19T20:49:21;8.17;;;7.77;;
17449;SDS011;8842;51.244;7.102;2022-10-19T20:59:36;7.70;;;7.30;;
17449;SDS011;8842;51.244;7.102;2022-10-19T21:04:41;7.50;;;7.10;;
17449;SDS011;8842;51.244;7.102;2022-10-19T21:09:45;6.80;;;6.50;;
17449;SDS011;8842;51.244;7.102;2022-10-19T21:14:49;7.03;;;6.73;;
17449;SDS011;8842;51.244;7.102;2022-10-19T21:25:05;7.30;;;6.90;;
17449;SDS011;8842;51.244;7.102;2022-10-19T21:35:26;6.90;;;6.60;;
17449;SDS011;8842;51.244;7.102;2022-10-19T21:40:33;7.03;;;6.73;;
17449;SDS011;8842;51.244;7.102;2022-10-19T21:50:48;7.00;;;6.70;;
17449;SDS011;8842;51.244;7.102;2022-10-19T22:01:09;7.23;;;6.80;;
17449;SDS011;8842;51.244;7.102;2022-10-19T22:06:13;7.50;;;7.10;;
17449;SDS011;8842;51.244;7.102;2022-10-19T22:11:18;7.50;;;7.10;;
17449;SDS011;8842;51.244;7.102;2022-10-19T22:16:23;7.30;;;7.00;;
17449;SDS011;8842;51.244;7.102;2022-10-19T22:26:39;7.80;;;7.40;;
17449;SDS011;8842;51.244;7.102;2022-10-19T22:36:56;8.13;;;7.73;;
17449;SDS011;8842;51.244;7.102;2022-10-19T22:47:11;8.20;;;7.80;;
17449;SDS011;8842;51.244;7.102;2022-10-19T22:57:26;8.43;;;7.90;;
17449;SDS011;8842;51.244;7.102;2022-10-19T23:07:43;8.50;;;8.00;;
17449;SDS011;8842;51.244;7.102;2022-10-19T23:12:48;8.83;;;8.30;;
17449;SDS011;8842;51.244;7.102;2022-10-19T23:23:05;8.33;;;7.93;;
17449;SDS011;8842;51.244;7.102;2022-10-19T23:33:20;8.17;;;7.77;;
17449;SDS011;8842;51.244;7.102;2022-10-19T23:38:24;9.40;;;8.60;;
17449;SDS011;8842;51.244;7.102;2022-10-19T23:43:28;9.53;;;8.77;;
17449;SDS011;8842;51.244;7.102;2022-10-19T23:48:46;8.00;;;7.60;;
17449;SDS011;8842;51.244;7.102;2022-10-19T23:59:01;9.83;;;9.03;;
